createdAt,value
2019-03-20T00:00:06.050Z,1.57
2019-03-20T00:02:34.326Z,2.03
2019-03-20T00:05:00.774Z,1.40
2019-03-20T00:07:27.065Z,1.70
2019-03-20T00:09:53.542Z,2.00
2019-03-20T00:12:19.838Z,2.40
2019-03-20T00:14:46.202Z,2.10
2019-03-20T00:17:12.494Z,1.93
2019-03-20T00:19:38.758Z,1.70
2019-03-20T00:22:05.486Z,1.87
2019-03-20T00:24:31.756Z,1.50
2019-03-20T00:26:58.026Z,1.80
2019-03-20T00:29:24.418Z,2.00
2019-03-20T00:31:50.695Z,2.10
2019-03-20T00:34:17.274Z,1.70
2019-03-20T00:36:43.638Z,1.90
2019-03-20T00:39:09.935Z,2.10
2019-03-20T00:41:36.205Z,1.80
2019-03-20T00:44:03.091Z,1.93
2019-03-20T00:46:29.390Z,2.22
2019-03-20T00:48:55.795Z,2.62
2019-03-20T00:51:22.106Z,1.82
2019-03-20T00:53:48.420Z,1.35
2019-03-20T00:56:14.782Z,1.80
2019-03-20T00:58:41.246Z,2.00
2019-03-20T01:01:07.638Z,2.42
2019-03-20T01:03:34.251Z,2.47
2019-03-20T01:06:00.743Z,3.20
2019-03-20T01:08:27.418Z,2.33
2019-03-20T01:10:53.932Z,2.08
2019-03-20T01:13:20.202Z,1.95
2019-03-20T01:15:47.607Z,1.70
2019-03-20T01:18:13.873Z,1.90
2019-03-20T01:20:40.279Z,1.70
2019-03-20T01:23:06.670Z,1.87
2019-03-20T01:25:35.054Z,1.57
2019-03-20T01:28:01.409Z,1.85
2019-03-20T01:30:32.498Z,2.00
2019-03-20T01:33:01.700Z,1.92
2019-03-20T01:35:28.284Z,1.98
2019-03-20T01:37:55.071Z,1.75
2019-03-20T01:40:21.814Z,1.98
2019-03-20T01:42:48.198Z,2.25
2019-03-20T01:45:14.692Z,2.00
2019-03-20T01:47:41.183Z,1.82
2019-03-20T01:50:07.657Z,2.08
2019-03-20T01:52:35.219Z,2.40
2019-03-20T01:55:01.586Z,1.80
2019-03-20T01:57:27.882Z,1.72
2019-03-20T01:59:54.516Z,2.17
2019-03-20T02:02:20.819Z,1.50
2019-03-20T02:04:47.087Z,2.05
2019-03-20T02:07:14.218Z,1.87
2019-03-20T02:09:41.591Z,1.92
2019-03-20T02:12:07.881Z,2.20
2019-03-20T02:14:34.159Z,1.90
2019-03-20T02:17:00.623Z,1.90
2019-03-20T02:19:26.918Z,2.05
2019-03-20T02:21:53.530Z,1.77
2019-03-20T02:24:19.846Z,1.87
2019-03-20T02:26:46.125Z,2.22
2019-03-20T02:29:12.528Z,1.72
2019-03-20T02:31:39.999Z,1.90
2019-03-20T02:34:06.404Z,2.17
2019-03-20T02:36:32.885Z,2.20
2019-03-20T02:38:59.596Z,1.80
2019-03-20T02:41:26.077Z,1.60
2019-03-20T02:43:53.563Z,1.70
2019-03-20T02:46:20.984Z,1.50
2019-03-20T02:49:07.124Z,1.82
2019-03-20T02:51:33.416Z,1.70
2019-03-20T02:53:59.917Z,1.75
2019-03-20T02:56:26.316Z,1.82
2019-03-20T02:58:52.587Z,1.77
2019-03-20T03:01:20.074Z,1.42
2019-03-20T03:03:47.808Z,1.60
2019-03-20T03:06:14.095Z,2.02
2019-03-20T03:08:40.369Z,2.02
2019-03-20T03:11:06.777Z,1.87
2019-03-20T03:13:33.246Z,1.60
2019-03-20T03:15:59.534Z,2.00
2019-03-20T03:18:25.918Z,2.00
2019-03-20T03:20:52.616Z,2.10
2019-03-20T03:23:20.120Z,1.50
2019-03-20T03:25:49.869Z,1.70
2019-03-20T03:28:14.712Z,2.35
2019-03-20T03:30:41.004Z,2.12
2019-03-20T03:33:07.343Z,1.55
2019-03-20T03:35:33.662Z,1.82
2019-03-20T03:38:00.060Z,1.65
2019-03-20T03:40:26.532Z,1.50
2019-03-20T03:42:52.941Z,1.35
2019-03-20T03:45:19.432Z,1.47
2019-03-20T03:47:45.818Z,1.60
2019-03-20T03:50:12.511Z,1.60
2019-03-20T03:52:39.082Z,1.87
2019-03-20T03:55:08.644Z,2.00
2019-03-20T03:57:35.401Z,2.20
2019-03-20T04:00:03.241Z,1.80
2019-03-20T04:02:29.706Z,1.60
2019-03-20T04:04:56.086Z,1.70
2019-03-20T04:07:23.770Z,1.62
2019-03-20T04:09:50.365Z,1.60
2019-03-20T04:12:16.763Z,1.80
2019-03-20T04:14:43.035Z,1.32
2019-03-20T04:17:21.052Z,1.75
2019-03-20T04:19:47.320Z,1.92
2019-03-20T04:22:13.749Z,1.72
2019-03-20T04:24:40.231Z,2.02
2019-03-20T04:27:06.781Z,1.87
2019-03-20T04:29:33.274Z,1.95
2019-03-20T04:31:59.978Z,1.70
2019-03-20T04:34:26.364Z,1.70
2019-03-20T04:36:53.852Z,1.67
2019-03-20T04:39:20.252Z,1.98
2019-03-20T04:41:46.627Z,1.98
2019-03-20T04:44:12.914Z,1.85
2019-03-20T04:46:39.529Z,1.90
2019-03-20T04:49:06.028Z,1.50
2019-03-20T04:51:32.482Z,1.90
2019-03-20T04:53:58.864Z,1.92
2019-03-20T04:56:25.146Z,1.52
2019-03-20T04:58:51.894Z,2.47
2019-03-20T05:01:18.375Z,1.57
2019-03-20T05:03:46.071Z,1.60
2019-03-20T05:06:12.367Z,2.08
2019-03-20T05:08:38.636Z,1.67
2019-03-20T05:11:04.927Z,1.90
2019-03-20T05:13:31.513Z,1.98
2019-03-20T05:15:58.115Z,2.17
2019-03-20T05:18:24.774Z,2.37
2019-03-20T05:20:51.166Z,1.90
2019-03-20T05:23:17.442Z,1.82
2019-03-20T05:25:43.854Z,1.77
2019-03-20T05:28:10.231Z,1.50
2019-03-20T05:30:36.556Z,1.75
2019-03-20T05:33:03.126Z,2.30
2019-03-20T05:35:29.519Z,1.82
2019-03-20T05:37:55.802Z,2.08
2019-03-20T05:40:22.190Z,2.02
2019-03-20T05:42:48.461Z,2.20
2019-03-20T05:45:17.611Z,2.08
2019-03-20T05:47:45.364Z,2.35
2019-03-20T05:50:15.451Z,2.08
2019-03-20T05:52:41.926Z,1.80
2019-03-20T05:55:08.658Z,2.08
2019-03-20T05:57:35.066Z,1.90
2019-03-20T06:00:02.846Z,1.98
2019-03-20T06:02:29.158Z,2.40
2019-03-20T06:05:15.800Z,3.20
2019-03-20T06:07:42.181Z,2.45
2019-03-20T06:10:13.333Z,3.22
2019-03-20T06:12:40.920Z,3.20
2019-03-20T06:15:07.790Z,3.85
2019-03-20T06:17:34.255Z,5.42
2019-03-20T06:20:00.756Z,6.45
2019-03-20T06:22:27.282Z,7.53
2019-03-20T06:24:53.670Z,9.60
2019-03-20T06:27:20.213Z,13.70
2019-03-20T06:29:46.518Z,15.48
2019-03-20T06:32:12.824Z,8.63
2019-03-20T06:34:39.102Z,5.58
2019-03-20T06:37:05.394Z,3.50
2019-03-20T06:39:31.658Z,3.02
2019-03-20T06:41:58.024Z,2.65
2019-03-20T06:44:24.302Z,2.50
2019-03-20T06:46:50.703Z,2.33
2019-03-20T06:49:16.980Z,2.37
2019-03-20T06:51:43.480Z,2.35
2019-03-20T06:54:09.855Z,2.60
2019-03-20T06:56:36.358Z,2.25
2019-03-20T06:59:24.701Z,2.47
2019-03-20T07:01:51.199Z,2.00
2019-03-20T07:04:24.063Z,2.25
2019-03-20T07:06:57.294Z,2.25
2019-03-20T07:09:30.089Z,2.17
2019-03-20T07:11:56.386Z,2.77
2019-03-20T07:14:22.658Z,2.85
2019-03-20T07:16:49.046Z,2.90
2019-03-20T07:19:15.590Z,2.50
2019-03-20T07:21:41.878Z,2.50
2019-03-20T07:24:08.484Z,3.55
2019-03-20T07:26:34.987Z,2.85
2019-03-20T07:29:01.477Z,2.85
2019-03-20T07:31:27.870Z,3.25
2019-03-20T07:33:54.247Z,2.50
2019-03-20T07:36:20.662Z,2.65
2019-03-20T07:38:47.286Z,2.67
2019-03-20T07:41:13.798Z,2.92
2019-03-20T07:43:40.098Z,3.15
2019-03-20T07:46:06.782Z,2.90
2019-03-20T07:48:33.512Z,2.52
2019-03-20T07:51:00.175Z,2.52
2019-03-20T07:53:26.585Z,2.98
2019-03-20T07:55:52.858Z,3.10
2019-03-20T07:58:19.258Z,3.37
2019-03-20T08:00:46.030Z,3.10
2019-03-20T08:03:12.312Z,3.00
2019-03-20T08:05:38.842Z,3.37
2019-03-20T08:08:07.495Z,3.57
2019-03-20T08:10:33.670Z,3.40
2019-03-20T08:13:00.030Z,2.97
2019-03-20T08:15:26.643Z,3.67
2019-03-20T08:17:53.215Z,3.40
2019-03-20T08:20:25.114Z,2.73
2019-03-20T08:22:51.486Z,3.00
2019-03-20T08:25:17.870Z,3.13
2019-03-20T08:27:44.436Z,3.90
2019-03-20T08:30:16.691Z,3.43
2019-03-20T08:32:43.465Z,2.80
2019-03-20T08:35:13.519Z,3.80
2019-03-20T08:37:40.739Z,3.63
2019-03-20T08:40:14.494Z,3.83
2019-03-20T08:42:40.790Z,3.37
2019-03-20T08:45:10.263Z,3.40
2019-03-20T08:47:36.998Z,3.40
2019-03-20T08:50:07.076Z,3.87
2019-03-20T08:52:33.755Z,3.43
2019-03-20T08:55:00.495Z,3.13
2019-03-20T08:57:26.774Z,3.27
2019-03-20T08:59:53.051Z,3.20
2019-03-20T09:02:19.319Z,3.37
2019-03-20T09:04:45.607Z,3.63
2019-03-20T09:07:11.954Z,3.73
2019-03-20T09:09:38.264Z,3.43
2019-03-20T09:12:04.643Z,3.93
2019-03-20T09:14:30.935Z,4.63
2019-03-20T09:16:57.206Z,5.30
2019-03-20T09:19:23.810Z,4.07
2019-03-20T09:21:50.543Z,4.07
2019-03-20T09:24:16.842Z,4.47
2019-03-20T09:26:43.520Z,4.17
2019-03-20T09:29:18.182Z,3.93
2019-03-20T09:31:38.434Z,3.67
2019-03-20T09:34:04.954Z,3.50
2019-03-20T09:36:42.414Z,3.60
2019-03-20T09:38:59.614Z,3.77
2019-03-20T09:41:26.034Z,4.47
2019-03-20T09:43:52.307Z,4.17
2019-03-20T09:46:18.644Z,4.00
2019-03-20T09:48:45.113Z,4.30
2019-03-20T09:51:11.858Z,5.77
2019-03-20T09:53:38.122Z,6.00
2019-03-20T09:56:04.734Z,6.27
2019-03-20T09:58:32.002Z,5.93
2019-03-20T10:00:58.806Z,7.10
2019-03-20T10:03:25.186Z,6.07
2019-03-20T10:05:51.799Z,5.33
2019-03-20T10:08:18.415Z,5.27
2019-03-20T10:10:44.872Z,5.60
2019-03-20T10:13:11.278Z,5.13
2019-03-20T10:15:37.938Z,5.07
2019-03-20T10:18:04.437Z,4.27
2019-03-20T10:20:30.817Z,5.13
2019-03-20T10:22:57.278Z,4.70
2019-03-20T10:25:23.650Z,4.90
2019-03-20T10:27:51.909Z,4.40
2019-03-20T10:30:21.126Z,4.33
2019-03-20T10:32:47.667Z,3.63
2019-03-20T10:35:14.062Z,2.90
2019-03-20T10:37:40.627Z,2.70
2019-03-20T10:40:12.396Z,2.57
2019-03-20T10:42:39.150Z,2.07
2019-03-20T10:45:08.246Z,3.13
2019-03-20T10:47:34.968Z,2.45
2019-03-20T10:50:02.631Z,2.40
2019-03-20T10:52:29.386Z,2.60
2019-03-20T10:54:55.754Z,1.70
2019-03-20T10:57:22.043Z,2.03
2019-03-20T10:59:48.662Z,1.60
2019-03-20T11:02:16.259Z,1.60
2019-03-20T11:04:42.869Z,1.87
2019-03-20T11:07:09.613Z,1.77
2019-03-20T11:09:35.980Z,1.80
2019-03-20T11:12:02.463Z,1.63
2019-03-20T11:14:28.771Z,3.43
2019-03-20T11:16:55.170Z,2.20
2019-03-20T11:19:22.645Z,1.30
2019-03-20T11:21:49.011Z,1.70
2019-03-20T11:24:15.590Z,1.60
2019-03-20T11:26:42.226Z,1.57
2019-03-20T11:29:09.066Z,1.70
2019-03-20T11:31:35.506Z,1.43
2019-03-20T11:34:02.558Z,1.73
2019-03-20T11:36:29.218Z,1.73
2019-03-20T11:38:55.722Z,1.80
2019-03-20T11:41:23.130Z,1.70
2019-03-20T11:43:49.497Z,1.40
2019-03-20T11:46:16.340Z,1.40
2019-03-20T11:48:42.802Z,1.60
2019-03-20T11:51:09.440Z,1.40
2019-03-20T11:53:35.968Z,1.50
2019-03-20T11:56:02.770Z,1.10
2019-03-20T11:58:29.339Z,1.40
2019-03-20T12:00:55.944Z,1.07
2019-03-20T12:03:22.402Z,1.10
2019-03-20T12:05:49.252Z,1.00
2019-03-20T12:08:17.557Z,1.23
2019-03-20T12:10:43.939Z,1.30
2019-03-20T12:13:10.202Z,1.00
2019-03-20T12:15:37.699Z,0.80
2019-03-20T12:18:04.251Z,0.70
2019-03-20T12:20:30.643Z,1.00
2019-03-20T12:22:58.194Z,0.70
2019-03-20T12:25:31.991Z,0.90
2019-03-20T12:27:58.462Z,0.80
2019-03-20T12:30:33.463Z,0.97
2019-03-20T12:33:00.307Z,1.03
2019-03-20T12:35:35.404Z,1.00
2019-03-20T12:38:13.305Z,1.23
2019-03-20T12:40:30.850Z,1.10
2019-03-20T12:42:57.992Z,0.77
2019-03-20T12:45:29.595Z,0.80
2019-03-20T12:47:56.080Z,0.83
2019-03-20T12:50:22.667Z,1.00
2019-03-20T12:52:48.930Z,1.00
2019-03-20T12:55:19.001Z,0.80
2019-03-20T12:57:45.469Z,0.93
2019-03-20T13:00:15.566Z,0.83
2019-03-20T13:02:42.286Z,0.83
2019-03-20T13:05:34.627Z,0.70
2019-03-20T13:08:05.785Z,0.80
2019-03-20T13:10:29.745Z,1.00
2019-03-20T13:12:56.219Z,0.80
2019-03-20T13:15:24.891Z,0.93
2019-03-20T13:17:52.866Z,0.80
2019-03-20T13:20:20.012Z,1.07
2019-03-20T13:22:55.921Z,0.93
2019-03-20T13:25:22.215Z,1.10
2019-03-20T13:27:48.485Z,0.90
2019-03-20T13:30:34.742Z,1.00
2019-03-20T13:33:01.527Z,0.97
2019-03-20T13:35:29.428Z,1.10
2019-03-20T13:37:55.830Z,0.60
2019-03-20T13:40:22.490Z,0.90
2019-03-20T13:43:02.415Z,0.60
2019-03-20T13:45:29.163Z,1.10
2019-03-20T13:47:55.629Z,0.80
2019-03-20T13:50:22.322Z,0.83
2019-03-20T13:52:49.166Z,0.83
2019-03-20T13:55:16.026Z,1.20
2019-03-20T13:57:42.823Z,1.00
2019-03-20T14:00:23.925Z,0.93
2019-03-20T14:02:50.974Z,1.00
2019-03-20T14:05:17.570Z,1.20
2019-03-20T14:07:44.075Z,1.43
2019-03-20T14:10:27.036Z,1.60
2019-03-20T14:12:53.566Z,2.20
2019-03-20T14:15:20.265Z,1.20
2019-03-20T14:17:47.319Z,1.17
2019-03-20T14:20:17.002Z,0.90
2019-03-20T14:22:43.299Z,1.30
2019-03-20T14:25:11.271Z,1.00
2019-03-20T14:27:37.574Z,0.87
2019-03-20T14:30:07.747Z,1.20
2019-03-20T14:32:34.117Z,0.90
2019-03-20T14:35:00.431Z,1.13
2019-03-20T14:37:26.867Z,1.00
2019-03-20T14:39:53.488Z,1.00
2019-03-20T14:42:20.123Z,0.90
2019-03-20T14:44:46.663Z,1.90
2019-03-20T14:47:12.955Z,3.43
2019-03-20T14:49:39.327Z,2.30
2019-03-20T14:52:05.634Z,1.30
2019-03-20T14:54:31.904Z,1.33
2019-03-20T14:56:58.191Z,1.40
2019-03-20T14:59:24.750Z,6.10
2019-03-20T15:01:51.154Z,7.23
2019-03-20T15:04:17.527Z,4.00
2019-03-20T15:06:43.881Z,2.03
2019-03-20T15:09:10.370Z,1.63
2019-03-20T15:11:36.740Z,1.40
2019-03-20T15:14:03.221Z,1.13
2019-03-20T15:16:29.582Z,1.13
2019-03-20T15:19:02.613Z,1.60
2019-03-20T15:21:28.925Z,17.97
2019-03-20T15:23:55.441Z,10.30
2019-03-20T15:26:21.789Z,9.37
2019-03-20T15:28:49.447Z,3.80
2019-03-20T15:31:16.057Z,1.93
2019-03-20T15:33:43.733Z,3.00
2019-03-20T15:36:10.516Z,2.20
2019-03-20T15:38:36.982Z,4.50
2019-03-20T15:41:03.591Z,6.93
2019-03-20T15:43:29.958Z,3.60
2019-03-20T15:45:56.364Z,2.07
2019-03-20T15:48:22.910Z,2.67
2019-03-20T15:50:49.505Z,1.20
2019-03-20T15:53:16.007Z,1.57
2019-03-20T15:55:45.838Z,2.37
2019-03-20T15:58:12.483Z,1.80
2019-03-20T16:00:39.126Z,4.23
2019-03-20T16:03:24.109Z,2.20
2019-03-20T16:05:50.497Z,1.23
2019-03-20T16:08:17.063Z,1.10
2019-03-20T16:10:43.898Z,1.00
2019-03-20T16:13:10.283Z,1.37
2019-03-20T16:15:36.755Z,1.40
2019-03-20T16:18:03.682Z,1.30
2019-03-20T16:20:30.174Z,1.27
2019-03-20T16:22:56.998Z,2.17
2019-03-20T16:25:23.820Z,2.27
2019-03-20T16:27:50.284Z,3.40
2019-03-20T16:30:22.485Z,4.93
2019-03-20T16:32:49.870Z,4.60
2019-03-20T16:35:16.814Z,11.43
2019-03-20T16:37:43.484Z,7.50
2019-03-20T16:40:22.654Z,3.00
2019-03-20T16:42:49.229Z,1.27
2019-03-20T16:45:18.960Z,0.87
2019-03-20T16:47:45.414Z,0.70
2019-03-20T16:50:16.643Z,0.60
2019-03-20T16:52:43.194Z,0.60
2019-03-20T16:55:12.523Z,0.50
2019-03-20T16:57:39.382Z,0.70
2019-03-20T17:00:26.859Z,0.83
2019-03-20T17:02:53.686Z,0.50
2019-03-20T17:05:20.874Z,0.70
2019-03-20T17:07:47.433Z,0.70
2019-03-20T17:10:19.575Z,0.77
2019-03-20T17:12:46.222Z,0.70
2019-03-20T17:15:15.798Z,1.60
2019-03-20T17:17:42.434Z,2.17
2019-03-20T17:20:09.479Z,2.87
2019-03-20T17:22:42.013Z,2.00
2019-03-20T17:25:07.750Z,1.87
2019-03-20T17:27:34.506Z,1.53
2019-03-20T17:30:00.978Z,1.10
2019-03-20T17:32:27.384Z,1.23
2019-03-20T17:34:53.739Z,1.20
2019-03-20T17:37:20.286Z,1.73
2019-03-20T17:39:46.877Z,3.57
2019-03-20T17:42:13.191Z,4.43
2019-03-20T17:44:39.838Z,5.00
2019-03-20T17:47:06.210Z,4.07
2019-03-20T17:49:32.500Z,2.80
2019-03-20T17:51:58.870Z,3.93
2019-03-20T17:54:25.156Z,17.27
2019-03-20T17:56:52.296Z,8.10
2019-03-20T17:59:18.691Z,4.90
2019-03-20T18:01:45.062Z,4.23
2019-03-20T18:04:11.346Z,6.77
2019-03-20T18:06:37.609Z,5.80
2019-03-20T18:09:06.499Z,5.13
2019-03-20T18:11:32.758Z,3.67
2019-03-20T18:13:59.050Z,2.70
2019-03-20T18:16:25.407Z,3.00
2019-03-20T18:18:51.742Z,2.30
2019-03-20T18:21:19.025Z,2.90
2019-03-20T18:23:45.854Z,2.13
2019-03-20T18:26:13.219Z,2.07
2019-03-20T18:28:39.766Z,2.40
2019-03-20T18:31:06.463Z,2.60
2019-03-20T18:33:32.934Z,3.67
2019-03-20T18:35:59.747Z,2.90
2019-03-20T18:38:26.511Z,3.47
2019-03-20T18:40:53.018Z,2.43
2019-03-20T18:43:19.378Z,2.67
2019-03-20T18:45:45.674Z,2.47
2019-03-20T18:48:12.227Z,2.63
2019-03-20T18:50:38.827Z,2.67
2019-03-20T18:53:05.089Z,2.73
2019-03-20T18:55:32.584Z,3.67
2019-03-20T18:57:59.306Z,2.80
2019-03-20T19:00:31.846Z,2.37
2019-03-20T19:03:01.418Z,1.70
2019-03-20T19:05:43.825Z,2.30
2019-03-20T19:08:10.166Z,2.07
2019-03-20T19:10:37.071Z,1.87
2019-03-20T19:13:03.725Z,1.63
2019-03-20T19:15:30.360Z,1.67
2019-03-20T19:17:56.719Z,3.10
2019-03-20T19:20:23.197Z,3.00
2019-03-20T19:22:49.600Z,2.10
2019-03-20T19:25:16.473Z,1.93
2019-03-20T19:27:42.862Z,1.97
2019-03-20T19:30:19.634Z,2.07
2019-03-20T19:32:46.071Z,2.53
2019-03-20T19:35:12.551Z,1.80
2019-03-20T19:37:39.141Z,2.43
2019-03-20T19:40:11.739Z,1.87
2019-03-20T19:42:38.214Z,2.23
2019-03-20T19:45:10.079Z,2.53
2019-03-20T19:47:36.595Z,1.93
2019-03-20T19:50:11.139Z,1.73
2019-03-20T19:52:38.886Z,2.30
2019-03-20T19:55:07.757Z,3.10
2019-03-20T19:57:34.410Z,2.50
2019-03-20T20:00:00.798Z,2.37
2019-03-20T20:02:27.455Z,2.50
2019-03-20T20:04:53.743Z,2.80
2019-03-20T20:07:20.023Z,3.23
2019-03-20T20:09:46.299Z,3.03
2019-03-20T20:12:12.583Z,3.07
2019-03-20T20:14:39.361Z,2.80
2019-03-20T20:17:05.651Z,3.00
2019-03-20T20:19:32.051Z,1.90
2019-03-20T20:21:58.418Z,2.60
2019-03-20T20:24:24.710Z,2.50
2019-03-20T20:26:51.330Z,2.23
2019-03-20T20:29:17.622Z,2.73
2019-03-20T20:31:43.986Z,2.50
2019-03-20T20:34:10.578Z,4.07
2019-03-20T20:36:36.846Z,2.83
2019-03-20T20:39:05.271Z,2.10
2019-03-20T20:41:31.879Z,2.13
2019-03-20T20:43:58.420Z,1.87
2019-03-20T20:46:25.029Z,1.90
2019-03-20T20:48:51.298Z,1.70
2019-03-20T20:51:17.590Z,1.70
2019-03-20T20:53:43.846Z,2.13
2019-03-20T20:56:10.134Z,2.20
2019-03-20T20:58:36.661Z,1.90
2019-03-20T21:01:03.265Z,1.50
2019-03-20T21:03:29.782Z,1.40
2019-03-20T21:05:56.159Z,1.37
2019-03-20T21:08:22.494Z,2.40
2019-03-20T21:10:48.787Z,3.60
2019-03-20T21:13:15.067Z,3.07
2019-03-20T21:15:45.609Z,2.30
2019-03-20T21:18:24.848Z,2.23
2019-03-20T21:20:51.230Z,2.53
2019-03-20T21:26:36.028Z,2.23
2019-03-20T21:29:23.431Z,2.47
2019-03-20T21:32:10.443Z,2.53
2019-03-20T21:34:52.734Z,2.00
2019-03-20T21:37:25.594Z,3.13
2019-03-20T21:39:51.875Z,4.53
2019-03-20T21:42:30.846Z,3.47
2019-03-20T21:45:21.247Z,2.33
2019-03-20T21:47:47.541Z,2.60
2019-03-20T21:50:23.453Z,3.23
2019-03-20T21:52:50.071Z,4.17
2019-03-20T21:55:20.139Z,4.70
2019-03-20T21:57:52.049Z,4.50
2019-03-20T22:00:57.069Z,8.00
2019-03-20T22:03:24.855Z,9.70
2019-03-20T22:05:58.091Z,5.63
2019-03-20T22:08:24.386Z,4.07
2019-03-20T22:11:00.265Z,4.60
2019-03-20T22:13:45.828Z,6.37
2019-03-20T22:16:34.331Z,5.07
2019-03-20T22:19:32.234Z,3.50
2019-03-20T22:22:21.962Z,3.13
2019-03-20T22:25:12.426Z,2.80
2019-03-20T22:27:45.487Z,2.67
2019-03-20T22:30:12.155Z,1.67
2019-03-20T22:33:15.838Z,2.73
2019-03-20T22:35:45.194Z,3.27
2019-03-20T22:38:15.321Z,3.33
2019-03-20T22:41:18.629Z,2.80
2019-03-20T22:43:51.850Z,2.37
2019-03-20T22:46:41.614Z,2.33
2019-03-20T22:49:33.299Z,2.43
2019-03-20T22:52:13.020Z,2.37
2019-03-20T22:54:43.443Z,2.23
2019-03-20T22:57:16.067Z,2.00
2019-03-20T22:59:42.459Z,2.13
2019-03-20T23:02:15.331Z,2.03
2019-03-20T23:04:45.468Z,2.50
2019-03-20T23:07:11.977Z,2.20
2019-03-20T23:09:38.346Z,2.10
2019-03-20T23:12:07.727Z,2.00
2019-03-20T23:14:34.198Z,2.00
2019-03-20T23:17:00.726Z,2.13
2019-03-20T23:19:27.198Z,2.00
2019-03-20T23:21:53.771Z,1.93
2019-03-20T23:24:20.511Z,2.20
2019-03-20T23:26:46.902Z,1.93
2019-03-20T23:29:13.684Z,2.03
2019-03-20T23:31:40.201Z,2.23
2019-03-20T23:34:06.958Z,2.60
2019-03-20T23:36:34.374Z,2.10
2019-03-20T23:39:01.159Z,2.67
2019-03-20T23:41:29.358Z,2.47
2019-03-20T23:43:55.718Z,2.47
2019-03-20T23:46:22.406Z,2.30
2019-03-20T23:49:10.791Z,2.43
2019-03-20T23:51:37.466Z,2.23
2019-03-20T23:54:04.976Z,2.50
2019-03-20T23:56:35.186Z,2.43
2019-03-20T23:59:02.631Z,2.30
